Crossmaglen, United Kingdom
Current Conditions -  °F | °C
As of 5:50 PM on Friday 21 Nov 2014 (Local Time) from EGAA Reporting Station
Light Rain Light Rain  
Wind Chill: 41°   Ceiling: 600
Heat Index: 48°   Visibility: 5mi
Dew Point: 46°   Wind: 20mph
Humidity: 93%   Direction: 120°ESE
Pressure: 29.71"   Gusts: NA
Location:  54.08°N, 6.6°W
Report Text: EGAA 211750Z 12017KT 8000 -RA BKN006 BKN014 09/08 Q1006
Loading
Personal Weather Stations






























Interactive Weather Map New forecast layout! Learn more

10-Day Weather Forecast

Advertisements
Track Severe Weather on mobile